createdAt,value
2023-11-23T00:01:48.666Z,1.85
2023-11-23T00:04:16.523Z,1.90
2023-11-23T00:06:45.117Z,2.22
2023-11-23T00:09:13.019Z,2.00
2023-11-23T00:11:41.184Z,2.00
2023-11-23T00:14:08.998Z,1.83
2023-11-23T00:16:36.791Z,1.80
2023-11-23T00:19:06.272Z,2.17
2023-11-23T00:21:34.019Z,2.35
2023-11-23T00:24:02.032Z,2.13
2023-11-23T00:26:29.794Z,2.15
2023-11-23T00:29:00.708Z,2.10
2023-11-23T00:31:28.469Z,2.17
2023-11-23T00:33:56.334Z,2.15
2023-11-23T00:36:25.461Z,2.45
2023-11-23T00:38:53.224Z,2.40
2023-11-23T00:41:21.014Z,2.50
2023-11-23T00:43:48.705Z,2.88
2023-11-23T00:46:16.842Z,2.45
2023-11-23T00:48:44.589Z,2.38
2023-11-23T00:51:12.409Z,2.30
2023-11-23T00:53:41.593Z,2.25
2023-11-23T00:56:09.393Z,2.40
2023-11-23T00:58:37.267Z,2.40
2023-11-23T01:01:05.485Z,2.65
2023-11-23T01:03:33.683Z,2.38
2023-11-23T01:06:01.951Z,2.50
2023-11-23T01:08:30.036Z,2.42
2023-11-23T01:11:00.386Z,2.92
2023-11-23T01:13:28.243Z,2.70
2023-11-23T01:15:56.589Z,2.63
2023-11-23T01:18:25.144Z,2.50
2023-11-23T01:20:52.973Z,2.67
2023-11-23T01:23:20.786Z,2.63
2023-11-23T01:25:48.514Z,2.95
2023-11-23T01:28:17.544Z,2.97
2023-11-23T01:30:45.856Z,3.35
2023-11-23T01:33:13.743Z,2.70
2023-11-23T01:35:41.586Z,3.17
2023-11-23T01:38:10.249Z,3.00
2023-11-23T01:40:38.946Z,3.10
2023-11-23T01:43:09.144Z,3.25
2023-11-23T01:45:38.259Z,3.20
2023-11-23T01:48:06.830Z,3.60
2023-11-23T01:50:35.730Z,3.03
2023-11-23T01:53:04.562Z,3.30
2023-11-23T01:55:32.242Z,3.42
2023-11-23T01:58:00.372Z,3.50
2023-11-23T02:00:28.679Z,3.60
2023-11-23T02:02:58.135Z,3.63
2023-11-23T02:05:25.964Z,3.60
2023-11-23T02:07:53.695Z,3.67
2023-11-23T02:10:21.484Z,3.80
2023-11-23T02:12:49.419Z,3.55
2023-11-23T02:15:18.971Z,3.67
2023-11-23T02:17:47.196Z,3.90
2023-11-23T02:20:16.351Z,4.22
2023-11-23T02:22:44.070Z,4.20
2023-11-23T02:25:14.002Z,4.05
2023-11-23T02:27:42.719Z,3.88
2023-11-23T02:30:11.837Z,4.38
2023-11-23T02:32:42.612Z,4.50
2023-11-23T02:35:11.095Z,4.45
2023-11-23T02:37:38.858Z,4.65
2023-11-23T02:40:07.736Z,4.35
2023-11-23T02:42:36.830Z,4.90
2023-11-23T02:45:05.511Z,5.25
2023-11-23T02:47:33.390Z,4.70
2023-11-23T02:50:01.321Z,5.00
2023-11-23T02:52:29.614Z,5.00
2023-11-23T02:54:57.369Z,5.13
2023-11-23T02:57:25.067Z,5.10
2023-11-23T02:59:54.147Z,5.10
2023-11-23T03:02:22.025Z,5.35
2023-11-23T03:04:49.815Z,4.90
2023-11-23T03:07:19.105Z,4.90
2023-11-23T03:09:47.230Z,5.18
2023-11-23T03:12:15.524Z,5.30
2023-11-23T03:14:43.396Z,5.00
2023-11-23T03:17:12.599Z,5.30
2023-11-23T03:19:40.561Z,5.22
2023-11-23T03:22:09.310Z,5.38
2023-11-23T03:24:37.037Z,5.25
2023-11-23T03:27:05.548Z,5.10
2023-11-23T03:29:34.724Z,5.25
2023-11-23T03:32:03.429Z,5.20
2023-11-23T03:34:32.602Z,5.00
2023-11-23T03:37:00.350Z,5.43
2023-11-23T03:39:28.086Z,5.03
2023-11-23T03:41:56.607Z,5.30
2023-11-23T03:44:24.428Z,5.22
2023-11-23T03:46:53.837Z,5.25
2023-11-23T03:49:21.628Z,5.10
2023-11-23T03:51:50.830Z,4.88
2023-11-23T03:54:18.711Z,5.05
2023-11-23T03:56:47.360Z,4.72
2023-11-23T03:59:15.155Z,4.80
2023-11-23T04:01:46.773Z,5.13
2023-11-23T04:04:14.599Z,4.85
2023-11-23T04:06:42.620Z,4.70
2023-11-23T04:09:11.876Z,4.40
2023-11-23T04:11:39.660Z,4.93
2023-11-23T04:14:07.748Z,4.45
2023-11-23T04:16:35.527Z,4.60
2023-11-23T04:19:03.287Z,4.70
2023-11-23T04:21:30.991Z,3.88
2023-11-23T04:23:58.729Z,3.92
2023-11-23T04:26:27.842Z,4.28
2023-11-23T04:28:55.647Z,4.20
2023-11-23T04:31:23.356Z,3.70
2023-11-23T04:33:51.152Z,3.90
2023-11-23T04:36:18.984Z,3.90
2023-11-23T04:38:46.862Z,3.83
2023-11-23T04:41:14.582Z,3.60
2023-11-23T04:43:43.654Z,3.60
2023-11-23T04:46:11.376Z,3.42
2023-11-23T04:48:39.155Z,3.80
2023-11-23T04:51:07.653Z,3.28
2023-11-23T04:53:35.393Z,3.40
2023-11-23T04:56:03.161Z,3.33
2023-11-23T04:58:30.883Z,3.42
2023-11-23T05:01:00.984Z,3.00
2023-11-23T05:03:29.848Z,3.33
2023-11-23T05:05:57.725Z,2.75
2023-11-23T05:08:25.487Z,2.83
2023-11-23T05:10:54.458Z,3.10
2023-11-23T05:13:22.151Z,2.60
2023-11-23T05:15:49.910Z,2.88
2023-11-23T05:18:19.080Z,2.80
2023-11-23T05:20:46.950Z,2.70
2023-11-23T05:23:14.684Z,2.42
2023-11-23T05:25:42.562Z,2.50
2023-11-23T05:28:10.283Z,2.20
2023-11-23T05:30:39.762Z,2.40
2023-11-23T05:33:07.584Z,2.30
2023-11-23T05:35:36.712Z,2.22
2023-11-23T05:38:04.425Z,2.30
2023-11-23T05:40:32.157Z,2.20
2023-11-23T05:43:05.382Z,2.10
2023-11-23T05:45:35.000Z,2.20
2023-11-23T05:48:02.940Z,2.45
2023-11-23T05:50:31.247Z,2.20
2023-11-23T05:53:00.645Z,2.10
2023-11-23T05:55:28.421Z,1.70
2023-11-23T05:57:56.160Z,1.85
2023-11-23T06:00:23.966Z,1.85
2023-11-23T06:02:51.745Z,1.70
2023-11-23T06:05:19.989Z,1.65
2023-11-23T06:07:47.773Z,1.85
2023-11-23T06:10:17.631Z,1.55
2023-11-23T06:12:45.345Z,1.92
2023-11-23T06:15:13.088Z,1.55
2023-11-23T06:17:40.926Z,1.60
2023-11-23T06:20:10.095Z,1.50
2023-11-23T06:22:37.826Z,1.70
2023-11-23T06:25:06.146Z,2.00
2023-11-23T06:27:35.438Z,1.50
2023-11-23T06:30:03.740Z,1.60
2023-11-23T06:32:31.578Z,1.42
2023-11-23T06:34:59.631Z,1.58
2023-11-23T06:37:27.405Z,2.08
2023-11-23T06:39:57.201Z,1.33
2023-11-23T06:42:25.110Z,1.27
2023-11-23T06:44:55.072Z,1.30
2023-11-23T06:47:22.843Z,1.30
2023-11-23T06:49:50.579Z,1.63
2023-11-23T06:52:18.458Z,1.55
2023-11-23T06:54:46.245Z,1.42
2023-11-23T06:57:14.143Z,1.42
2023-11-23T06:59:41.849Z,1.20
2023-11-23T07:02:11.153Z,1.95
2023-11-23T07:04:39.905Z,1.85
2023-11-23T07:07:07.995Z,1.60
2023-11-23T07:09:36.295Z,2.15
2023-11-23T07:12:05.211Z,1.13
2023-11-23T07:14:33.029Z,1.40
2023-11-23T07:17:00.793Z,1.15
2023-11-23T07:19:30.439Z,1.25
2023-11-23T07:21:59.282Z,1.30
2023-11-23T07:24:27.002Z,1.13
2023-11-23T07:26:54.940Z,1.20
2023-11-23T07:29:22.730Z,1.92
2023-11-23T07:31:50.571Z,1.40
2023-11-23T07:34:18.356Z,1.13
2023-11-23T07:36:47.774Z,1.00
2023-11-23T07:39:17.936Z,1.17
2023-11-23T07:41:45.922Z,3.15
2023-11-23T07:44:13.646Z,1.23
2023-11-23T07:46:42.031Z,1.20
2023-11-23T07:49:09.987Z,1.42
2023-11-23T07:51:37.795Z,1.85
2023-11-23T07:54:07.414Z,1.52
2023-11-23T07:56:35.235Z,0.90
2023-11-23T07:59:03.555Z,1.38
2023-11-23T08:01:31.318Z,1.25
2023-11-23T08:03:59.153Z,1.80
2023-11-23T08:06:27.002Z,1.15
2023-11-23T08:08:54.920Z,1.45
2023-11-23T08:11:24.053Z,1.40
2023-11-23T08:13:51.827Z,1.27
2023-11-23T08:16:20.209Z,1.20
2023-11-23T08:18:50.308Z,1.73
2023-11-23T08:21:18.391Z,1.23
2023-11-23T08:23:46.259Z,1.75
2023-11-23T08:26:15.096Z,1.83
2023-11-23T08:28:44.215Z,1.02
2023-11-23T08:31:12.172Z,1.23
2023-11-23T08:33:39.987Z,2.30
2023-11-23T08:36:08.787Z,1.33
2023-11-23T08:38:38.184Z,2.10
2023-11-23T08:41:06.741Z,1.10
2023-11-23T08:43:38.029Z,1.10
2023-11-23T08:46:08.146Z,1.67
2023-11-23T08:48:35.918Z,1.85
2023-11-23T08:51:04.860Z,1.38
2023-11-23T08:53:32.731Z,1.17
2023-11-23T08:56:00.795Z,1.38
2023-11-23T08:58:28.585Z,2.72
2023-11-23T09:00:56.348Z,1.45
2023-11-23T09:03:25.551Z,1.75
2023-11-23T09:05:53.506Z,2.03
2023-11-23T09:08:21.634Z,1.65
2023-11-23T09:10:49.667Z,1.65
2023-11-23T09:13:18.582Z,1.40
2023-11-23T09:15:46.365Z,1.63
2023-11-23T09:18:14.221Z,1.88
2023-11-23T09:20:43.442Z,1.77
2023-11-23T09:23:11.158Z,1.95
2023-11-23T09:25:39.489Z,1.25
2023-11-23T09:28:07.250Z,2.65
2023-11-23T09:30:35.103Z,1.95
2023-11-23T09:33:02.916Z,1.52
2023-11-23T09:35:30.710Z,1.50
2023-11-23T09:37:59.762Z,1.48
2023-11-23T09:40:27.595Z,1.77
2023-11-23T09:42:55.388Z,1.48
2023-11-23T09:45:26.552Z,1.52
2023-11-23T09:47:54.840Z,1.60
2023-11-23T09:50:22.769Z,1.23
2023-11-23T09:52:50.546Z,1.73
2023-11-23T09:55:19.651Z,2.58
2023-11-23T09:57:49.203Z,1.92
2023-11-23T10:00:19.605Z,1.95
2023-11-23T10:02:50.628Z,1.67
2023-11-23T10:05:18.994Z,2.10
2023-11-23T10:07:48.189Z,1.13
2023-11-23T10:10:16.315Z,2.38
2023-11-23T10:12:45.985Z,1.42
2023-11-23T10:15:14.092Z,1.95
2023-11-23T10:17:42.243Z,1.48
2023-11-23T10:20:11.678Z,1.77
2023-11-23T10:22:40.268Z,2.33
2023-11-23T10:25:10.360Z,1.45
2023-11-23T10:27:38.846Z,2.00
2023-11-23T10:30:10.432Z,1.55
2023-11-23T10:32:38.313Z,2.08
2023-11-23T10:35:10.682Z,2.33
2023-11-23T10:37:39.204Z,1.58
2023-11-23T10:40:08.408Z,2.17
2023-11-23T10:42:36.590Z,1.88
2023-11-23T10:45:04.827Z,1.40
2023-11-23T10:47:34.006Z,1.92
2023-11-23T10:50:02.025Z,2.33
2023-11-23T10:52:30.405Z,1.60
2023-11-23T10:54:58.117Z,3.08
2023-11-23T10:57:27.537Z,2.00
2023-11-23T10:59:56.289Z,2.22
2023-11-23T11:02:24.627Z,2.75
2023-11-23T11:04:55.129Z,1.67
2023-11-23T11:07:28.871Z,2.40
2023-11-23T11:10:00.298Z,2.20
2023-11-23T11:12:37.438Z,2.22
2023-11-23T11:15:07.481Z,1.77
2023-11-23T11:17:40.052Z,1.75
2023-11-23T11:20:13.769Z,2.10
2023-11-23T11:22:41.802Z,1.58
2023-11-23T11:25:09.612Z,1.38
2023-11-23T11:27:37.561Z,1.73
2023-11-23T11:30:06.862Z,1.95
2023-11-23T11:32:35.104Z,1.52
2023-11-23T11:35:03.987Z,1.58
2023-11-23T11:37:34.215Z,2.15
2023-11-23T11:40:02.351Z,1.42
2023-11-23T11:42:31.022Z,1.80
2023-11-23T11:44:59.295Z,2.10
2023-11-23T11:47:29.083Z,3.13
2023-11-23T11:49:58.530Z,1.70
2023-11-23T11:52:27.429Z,2.00
2023-11-23T11:54:56.801Z,2.67
2023-11-23T11:57:24.609Z,2.00
2023-11-23T11:59:52.361Z,1.73
2023-11-23T12:02:20.356Z,1.35
2023-11-23T12:04:48.864Z,2.13
2023-11-23T12:07:16.627Z,2.00
2023-11-23T12:09:47.097Z,1.80
2023-11-23T12:12:19.222Z,1.58
2023-11-23T12:14:47.341Z,2.20
2023-11-23T12:17:15.379Z,2.33
2023-11-23T12:19:52.421Z,6.35
2023-11-23T12:22:22.313Z,6.22
2023-11-23T12:24:50.104Z,3.40
2023-11-23T12:27:19.715Z,2.95
2023-11-23T12:29:47.525Z,5.40
2023-11-23T12:32:15.869Z,4.65
2023-11-23T12:34:44.435Z,4.20
2023-11-23T12:37:12.236Z,3.17
2023-11-23T12:39:40.319Z,4.43
2023-11-23T12:42:08.353Z,5.35
2023-11-23T12:44:37.455Z,4.65
2023-11-23T12:47:05.534Z,5.53
2023-11-23T12:49:33.386Z,5.78
2023-11-23T12:52:02.422Z,8.18
2023-11-23T12:54:31.345Z,5.55
2023-11-23T12:56:59.476Z,11.50
2023-11-23T12:59:27.326Z,11.75
2023-11-23T13:01:59.953Z,7.82
2023-11-23T13:04:30.856Z,8.55
2023-11-23T13:06:59.306Z,9.25
2023-11-23T13:09:28.802Z,8.88
2023-11-23T13:11:59.312Z,7.75
2023-11-23T13:14:27.151Z,4.25
2023-11-23T13:16:57.854Z,8.70
2023-11-23T13:19:30.735Z,16.70
2023-11-23T13:22:05.774Z,13.00
2023-11-23T13:24:33.723Z,8.95
2023-11-23T13:27:02.325Z,7.60
2023-11-23T13:29:30.191Z,10.52
2023-11-23T13:31:59.512Z,8.75
2023-11-23T13:34:27.852Z,12.18
2023-11-23T13:36:55.902Z,10.73
2023-11-23T13:39:23.716Z,13.57
2023-11-23T13:41:51.536Z,7.93
2023-11-23T13:44:19.629Z,8.70
2023-11-23T13:46:47.949Z,12.52
2023-11-23T13:49:18.110Z,8.88
2023-11-23T13:51:46.874Z,19.00
2023-11-23T13:54:14.854Z,16.35
2023-11-23T13:56:44.069Z,9.50
2023-11-23T13:59:12.752Z,13.10
2023-11-23T14:01:40.958Z,16.55
2023-11-23T14:04:09.680Z,14.52
2023-11-23T14:06:40.176Z,10.70
2023-11-23T14:09:11.028Z,11.38
2023-11-23T14:11:39.406Z,13.82
2023-11-23T14:14:09.293Z,10.38
2023-11-23T14:16:37.554Z,13.23
2023-11-23T14:19:07.483Z,12.25
2023-11-23T14:21:35.289Z,12.00
2023-11-23T14:24:04.835Z,17.23
2023-11-23T14:26:33.548Z,21.17
2023-11-23T14:29:01.575Z,17.65
2023-11-23T14:31:29.484Z,14.90
2023-11-23T14:33:57.322Z,21.10
2023-11-23T14:36:25.103Z,51.42
2023-11-23T14:38:54.988Z,22.80
2023-11-23T14:41:25.289Z,18.92
2023-11-23T14:43:53.717Z,15.50
2023-11-23T14:46:22.383Z,22.20
2023-11-23T14:48:50.256Z,19.30
2023-11-23T14:51:19.582Z,16.05
2023-11-23T14:53:51.028Z,23.80
2023-11-23T14:56:21.816Z,23.02
2023-11-23T14:58:51.504Z,29.98
2023-11-23T15:01:19.965Z,25.58
2023-11-23T15:03:47.944Z,24.88
2023-11-23T15:06:17.323Z,26.98
2023-11-23T15:08:45.100Z,28.15
2023-11-23T15:11:15.935Z,33.22
2023-11-23T15:13:45.229Z,36.42
2023-11-23T15:16:15.540Z,28.63
2023-11-23T15:18:43.436Z,29.48
2023-11-23T15:21:11.177Z,33.70
2023-11-23T15:23:38.998Z,30.80
2023-11-23T15:26:08.667Z,17.15
2023-11-23T15:28:36.490Z,20.42
2023-11-23T15:31:04.512Z,22.05
2023-11-23T15:33:35.072Z,34.17
2023-11-23T15:36:06.854Z,28.17
2023-11-23T15:38:35.627Z,20.67
2023-11-23T15:41:04.572Z,24.25
2023-11-23T15:43:32.528Z,31.25
2023-11-23T15:46:00.531Z,28.73
2023-11-23T15:48:28.354Z,30.50
2023-11-23T15:50:58.152Z,30.45
2023-11-23T15:53:26.315Z,33.55
2023-11-23T15:55:55.659Z,23.55
2023-11-23T15:58:23.680Z,28.98
2023-11-23T16:00:53.731Z,25.77
2023-11-23T16:03:21.637Z,19.50
2023-11-23T16:05:49.612Z,21.27
2023-11-23T16:08:18.906Z,20.77
2023-11-23T16:10:46.685Z,21.63
2023-11-23T16:13:19.382Z,20.63
2023-11-23T16:15:47.334Z,22.83
2023-11-23T16:18:15.388Z,21.17
2023-11-23T16:20:46.796Z,22.77
2023-11-23T16:23:14.626Z,26.88
2023-11-23T16:25:43.644Z,30.30
2023-11-23T16:28:11.447Z,20.83
2023-11-23T16:30:39.729Z,19.02
2023-11-23T16:33:07.692Z,18.90
2023-11-23T16:35:35.544Z,20.40
2023-11-23T16:38:04.679Z,37.85
2023-11-23T16:40:32.412Z,44.33
2023-11-23T16:43:02.340Z,18.70
2023-11-23T16:45:30.191Z,31.10
2023-11-23T16:47:58.088Z,25.80
2023-11-23T16:50:25.911Z,13.85
2023-11-23T16:52:53.673Z,24.13
2023-11-23T16:55:21.399Z,11.23
2023-11-23T16:57:51.711Z,15.25
2023-11-23T17:00:21.281Z,9.18
2023-11-23T17:02:49.132Z,8.00
2023-11-23T17:05:17.075Z,16.00
2023-11-23T17:07:44.863Z,9.70
2023-11-23T17:10:13.122Z,11.18
2023-11-23T17:12:44.022Z,9.73
2023-11-23T17:15:12.867Z,15.50
2023-11-23T17:17:46.547Z,10.70
2023-11-23T17:20:16.642Z,6.10
2023-11-23T17:22:44.810Z,5.32
2023-11-23T17:25:12.706Z,5.28
2023-11-23T17:27:42.697Z,12.35
2023-11-23T17:30:12.392Z,9.50
2023-11-23T17:32:43.261Z,9.93
2023-11-23T17:35:11.364Z,6.82
2023-11-23T17:37:39.780Z,6.22
2023-11-23T17:40:09.432Z,8.43
2023-11-23T17:42:37.352Z,10.88
2023-11-23T17:45:05.817Z,9.77
2023-11-23T17:47:33.647Z,7.97
2023-11-23T17:50:02.800Z,7.68
2023-11-23T17:52:30.911Z,9.15
2023-11-23T17:54:59.033Z,13.70
2023-11-23T17:57:26.822Z,42.67
2023-11-23T17:59:56.785Z,36.58
2023-11-23T18:02:25.128Z,17.45
2023-11-23T18:04:53.679Z,24.05
2023-11-23T18:07:22.890Z,25.65
2023-11-23T18:09:51.159Z,25.38
2023-11-23T18:12:19.530Z,25.83
2023-11-23T18:14:47.726Z,20.70
2023-11-23T18:17:15.555Z,35.58
2023-11-23T18:19:43.898Z,19.55
2023-11-23T18:22:11.695Z,95.05
2023-11-23T18:24:40.821Z,26.05
2023-11-23T18:27:12.376Z,24.17
2023-11-23T18:29:40.293Z,17.05
2023-11-23T18:32:09.542Z,16.45
2023-11-23T18:34:37.318Z,15.40
2023-11-23T18:37:05.237Z,14.55
2023-11-23T18:39:33.230Z,18.08
2023-11-23T18:42:02.410Z,15.48
2023-11-23T18:44:30.169Z,15.45
2023-11-23T18:46:58.054Z,19.35
2023-11-23T18:49:29.008Z,23.52
2023-11-23T18:51:56.831Z,32.25
2023-11-23T18:54:25.138Z,17.45
2023-11-23T18:56:52.969Z,23.38
2023-11-23T18:59:22.404Z,18.70
2023-11-23T19:01:50.462Z,23.33
2023-11-23T19:04:18.531Z,23.23
2023-11-23T19:06:46.515Z,30.02
2023-11-23T19:09:16.242Z,31.90
2023-11-23T19:11:44.170Z,31.35
2023-11-23T19:14:12.791Z,32.28
2023-11-23T19:16:42.572Z,24.23
2023-11-23T19:19:12.446Z,20.92
2023-11-23T19:21:40.914Z,17.38
2023-11-23T19:24:10.118Z,18.08
2023-11-23T19:26:38.489Z,16.33
2023-11-23T19:29:07.474Z,86.97
2023-11-23T19:31:36.308Z,42.67
2023-11-23T19:34:06.809Z,42.67
2023-11-23T19:36:35.675Z,32.72
2023-11-23T19:39:04.163Z,23.45
2023-11-23T19:41:32.024Z,27.73
2023-11-23T19:44:00.402Z,20.63
2023-11-23T19:46:29.439Z,26.70
2023-11-23T19:48:57.612Z,19.23
2023-11-23T19:51:30.109Z,16.52
2023-11-23T19:53:58.351Z,34.75
2023-11-23T19:56:26.476Z,28.30
2023-11-23T19:58:54.569Z,22.23
2023-11-23T20:01:22.394Z,20.92
2023-11-23T20:03:50.230Z,24.13
2023-11-23T20:06:18.313Z,22.98
2023-11-23T20:08:47.463Z,14.40
2023-11-23T20:11:15.302Z,20.52
2023-11-23T20:13:43.051Z,14.07
2023-11-23T20:16:21.584Z,30.50
2023-11-23T20:18:57.475Z,28.52
2023-11-23T20:21:25.371Z,17.55
2023-11-23T20:23:54.440Z,19.75
2023-11-23T20:26:22.942Z,14.65
2023-11-23T20:28:50.747Z,20.17
2023-11-23T20:31:18.619Z,19.50
2023-11-23T20:33:46.999Z,12.27
2023-11-23T20:36:15.011Z,11.88
2023-11-23T20:38:44.081Z,12.85
2023-11-23T20:41:14.445Z,13.38
2023-11-23T20:43:42.707Z,12.80
2023-11-23T20:46:12.862Z,17.42
2023-11-23T20:48:40.778Z,10.63
2023-11-23T20:51:08.613Z,11.63
2023-11-23T20:53:36.437Z,14.45
2023-11-23T20:56:04.948Z,11.40
2023-11-23T20:58:34.812Z,9.70
2023-11-23T21:01:03.398Z,14.15
2023-11-23T21:03:31.835Z,9.10
2023-11-23T21:06:00.449Z,11.93
2023-11-23T21:08:28.578Z,12.40
2023-11-23T21:10:56.630Z,18.08
2023-11-23T21:13:24.376Z,14.85
2023-11-23T21:15:57.591Z,11.15
2023-11-23T21:18:25.473Z,11.23
2023-11-23T21:20:53.332Z,10.27
2023-11-23T21:23:21.378Z,11.77
2023-11-23T21:25:49.176Z,12.85
2023-11-23T21:28:16.865Z,11.55
2023-11-23T21:30:44.735Z,10.00
2023-11-23T21:33:13.905Z,9.70
2023-11-23T21:35:41.738Z,10.07
2023-11-23T21:38:09.496Z,9.82
2023-11-23T21:40:39.083Z,11.85
2023-11-23T21:43:06.850Z,11.60
2023-11-23T21:45:34.914Z,9.15
2023-11-23T21:48:02.678Z,9.35
2023-11-23T21:50:34.453Z,8.27
2023-11-23T21:53:02.229Z,8.90
2023-11-23T21:55:30.887Z,8.88
2023-11-23T21:57:59.432Z,9.63
2023-11-23T22:00:27.214Z,7.85
2023-11-23T22:02:55.072Z,9.00
2023-11-23T22:05:22.924Z,10.68
2023-11-23T22:07:53.476Z,8.32
2023-11-23T22:10:22.985Z,12.57
2023-11-23T22:12:51.425Z,12.75
2023-11-23T22:15:19.430Z,9.45
2023-11-23T22:17:47.647Z,11.75
2023-11-23T22:20:16.264Z,8.55
2023-11-23T22:22:44.452Z,7.82
2023-11-23T22:25:16.922Z,8.68
2023-11-23T22:27:45.594Z,8.35
2023-11-23T22:30:14.523Z,9.52
2023-11-23T22:32:42.628Z,8.00
2023-11-23T22:35:11.799Z,8.45
2023-11-23T22:37:40.271Z,7.95
2023-11-23T22:40:10.349Z,9.98
2023-11-23T22:42:40.797Z,8.25
2023-11-23T22:45:10.878Z,7.55
2023-11-23T22:47:38.746Z,9.05
2023-11-23T22:50:08.025Z,7.63
2023-11-23T22:52:36.623Z,11.38
2023-11-23T22:55:04.670Z,9.35
2023-11-23T22:57:33.288Z,8.88
2023-11-23T23:00:02.449Z,5.78
2023-11-23T23:02:30.393Z,7.93
2023-11-23T23:04:58.573Z,6.88
2023-11-23T23:07:27.192Z,9.18
2023-11-23T23:09:54.957Z,6.53
2023-11-23T23:12:22.790Z,8.57
2023-11-23T23:14:50.571Z,7.10
2023-11-23T23:17:20.134Z,6.38
2023-11-23T23:19:47.882Z,7.68
2023-11-23T23:22:24.321Z,8.57
2023-11-23T23:24:56.593Z,9.05
2023-11-23T23:27:24.490Z,8.38
2023-11-23T23:29:52.246Z,8.15
2023-11-23T23:32:24.459Z,7.97
2023-11-23T23:34:52.448Z,8.98
2023-11-23T23:37:20.225Z,9.27
2023-11-23T23:39:48.205Z,11.45
2023-11-23T23:42:17.048Z,9.98
2023-11-23T23:44:45.937Z,11.00
2023-11-23T23:47:14.477Z,11.27
2023-11-23T23:49:43.858Z,13.13
2023-11-23T23:52:11.617Z,14.40
2023-11-23T23:54:39.965Z,15.02
2023-11-23T23:57:07.694Z,15.75
2023-11-23T23:59:36.090Z,17.77
